Time;durP1;ratioP1;P1;durP2;ratioP2;P2;SDS_P1;SDS_P2;PMS_P1;PMS_P2;Temp;Humidity;BMP_temperature;BMP_pressure;BME280_temperature;BME280_humidity;BME280_pressure;Samples;Min_cycle;Max_cycle;Signal;HPM_P1;HPM_P2
2022/04/05 00:00:33;;;;;;;8.32;1.58;;;7.40;99.90;;;;;;5077678;28;20132;-73
2022/04/05 00:02:59;;;;;;;10.68;1.67;;;7.40;99.90;;;;;;5061157;28;20043;-73
2022/04/05 00:05:24;;;;;;;6.95;1.52;;;7.40;99.90;;;;;;5077821;28;20396;-73
2022/04/05 00:07:50;;;;;;;8.52;1.58;;;7.40;99.90;;;;;;5077428;28;20404;-73
2022/04/05 00:10:16;;;;;;;6.35;1.50;;;7.40;99.90;;;;;;5077696;28;20123;-73
2022/04/05 00:12:42;;;;;;;7.22;1.60;;;7.40;99.90;;;;;;5077441;28;20416;-72
2022/04/05 00:15:09;;;;;;;7.72;1.48;;;7.40;99.90;;;;;;5060780;28;20086;-73
2022/04/05 00:17:38;;;;;;;6.38;1.50;;;7.40;99.90;;;;;;5077240;28;20040;-73
2022/04/05 00:20:05;;;;;;;7.18;2.08;;;7.40;99.90;;;;;;5076365;28;20565;-73
2022/04/05 00:22:31;;;;;;;8.82;1.65;;;7.30;99.90;;;;;;5077157;28;20411;-73
2022/04/05 00:24:56;;;;;;;9.10;1.30;;;7.30;99.90;;;;;;5077479;28;20040;-73
2022/04/05 00:27:22;;;;;;;7.05;1.70;;;7.30;99.90;;;;;;5060640;28;20525;-73
2022/04/05 00:29:47;;;;;;;7.28;1.40;;;7.30;99.90;;;;;;5060388;28;20512;-73
2022/04/05 00:32:13;;;;;;;6.63;1.30;;;7.20;99.90;;;;;;5060683;28;20036;-73
2022/04/05 00:34:40;;;;;;;6.15;1.52;;;7.30;99.90;;;;;;5060335;28;20569;-72
2022/04/05 00:37:05;;;;;;;7.60;1.20;;;7.30;99.90;;;;;;5077110;28;20058;-72
2022/04/05 00:39:31;;;;;;;7.05;1.33;;;7.20;99.90;;;;;;5060188;28;20488;-72
2022/04/05 00:41:57;;;;;;;6.57;1.00;;;7.20;99.90;;;;;;5076927;28;20040;-72
2022/04/05 00:44:24;;;;;;;7.55;1.55;;;7.20;99.90;;;;;;5076796;28;20043;-72
2022/04/05 00:46:52;;;;;;;7.30;1.35;;;7.20;99.90;;;;;;5076922;28;20040;-73
2022/04/05 00:49:30;;;;;;;6.43;1.15;;;7.20;99.90;;;;;;5060004;28;20044;-72
2022/04/05 00:51:56;;;;;;;4.35;0.90;;;7.20;99.90;;;;;;5060410;28;20040;-72
2022/04/05 00:54:24;;;;;;;4.25;1.00;;;7.10;99.90;;;;;;5076584;28;20384;-73
2022/04/05 00:56:52;;;;;;;5.78;1.20;;;7.10;99.90;;;;;;5060101;28;20055;-72
2022/04/05 00:59:19;;;;;;;4.85;1.10;;;7.10;99.90;;;;;;5076479;28;20085;-73
2022/04/05 01:01:46;;;;;;;6.70;1.20;;;7.10;99.90;;;;;;5060123;28;20127;-72
2022/04/05 01:04:12;;;;;;;4.68;0.95;;;7.10;99.90;;;;;;5076400;28;20511;-72
2022/04/05 01:06:45;;;;;;;8.13;1.02;;;7.10;99.90;;;;;;5076347;28;20123;-72
2022/04/05 01:09:11;;;;;;;8.93;1.10;;;7.10;99.90;;;;;;5059677;28;20046;-73
2022/04/05 01:11:37;;;;;;;5.18;0.98;;;7.10;99.90;;;;;;5076270;28;20119;-73
2022/04/05 01:14:04;;;;;;;5.18;1.10;;;7.10;99.90;;;;;;5076236;28;20120;-73
2022/04/05 01:16:31;;;;;;;7.03;1.05;;;7.10;99.90;;;;;;5076175;28;20043;-72
2022/04/05 01:18:56;;;;;;;8.65;1.20;;;7.10;99.90;;;;;;5076082;28;20062;-73
2022/04/05 01:21:22;;;;;;;7.05;1.63;;;7.10;99.90;;;;;;5076311;28;20048;-72
2022/04/05 01:24:10;;;;;;;5.57;1.05;;;7.10;99.90;;;;;;5076021;28;20044;-72
2022/04/05 01:26:50;;;;;;;5.38;1.10;;;7.10;99.90;;;;;;5059253;28;20040;-73
2022/04/05 01:29:17;;;;;;;4.47;1.23;;;7.00;99.90;;;;;;5075880;28;20046;-73
2022/04/05 01:31:45;;;;;;;5.57;1.20;;;7.00;99.90;;;;;;5075838;28;20492;-72
2022/04/05 01:34:12;;;;;;;6.60;1.50;;;7.00;99.90;;;;;;5076149;28;20054;-72
2022/04/05 01:36:55;;;;;;;5.53;1.17;;;7.00;99.90;;;;;;5075723;28;20032;-73
2022/04/05 01:39:26;;;;;;;4.72;1.00;;;7.00;99.90;;;;;;5059633;28;20036;-73
2022/04/05 01:42:04;;;;;;;6.35;1.67;;;7.00;99.90;;;;;;5075783;28;20036;-73
2022/04/05 01:44:32;;;;;;;4.82;1.00;;;7.00;99.90;;;;;;5075950;28;20511;-72
2022/04/05 01:47:02;;;;;;;8.38;1.23;;;7.00;99.90;;;;;;5075489;28;20040;-72
2022/04/05 01:49:27;;;;;;;5.80;1.17;;;7.00;99.90;;;;;;5075826;28;20535;-72
2022/04/05 01:51:53;;;;;;;6.32;1.33;;;7.00;99.90;;;;;;5075622;28;20067;-72
2022/04/05 01:54:18;;;;;;;5.65;1.20;;;7.00;99.90;;;;;;5075533;28;20051;-72
2022/04/05 01:56:50;;;;;;;11.68;1.88;;;7.00;99.90;;;;;;5058831;28;20039;-72
2022/04/05 01:59:21;;;;;;;6.70;1.30;;;7.00;99.90;;;;;;5075463;28;20032;-72
2022/04/05 02:01:47;;;;;;;9.90;1.40;;;7.00;99.90;;;;;;5075469;28;20036;-72
2022/04/05 02:04:13;;;;;;;8.05;1.48;;;7.00;99.90;;;;;;5075395;28;20119;-73
2022/04/05 02:06:41;;;;;;;6.53;1.50;;;7.00;99.90;;;;;;5075578;28;20051;-72
2022/04/05 02:09:07;;;;;;;5.93;1.63;;;7.00;99.90;;;;;;5075282;28;20416;-72
2022/04/05 02:11:32;;;;;;;7.63;1.40;;;7.00;99.90;;;;;;5075358;28;20043;-72
2022/04/05 02:13:58;;;;;;;8.85;1.30;;;7.00;99.90;;;;;;5075262;28;20031;-72
2022/04/05 02:16:25;;;;;;;5.78;1.20;;;7.00;99.90;;;;;;5075544;28;20119;-72
2022/04/05 02:18:51;;;;;;;6.70;1.40;;;7.00;99.90;;;;;;5075214;28;20119;-73
2022/04/05 02:21:16;;;;;;;9.38;1.60;;;7.00;99.90;;;;;;5075256;28;20125;-73
2022/04/05 02:23:42;;;;;;;7.00;1.38;;;7.00;99.90;;;;;;5075191;28;20043;-73
2022/04/05 02:26:08;;;;;;;7.40;1.40;;;7.00;99.90;;;;;;5058458;28;20055;-72
2022/04/05 02:28:34;;;;;;;6.55;1.50;;;7.00;99.90;;;;;;5075001;28;20059;-72
2022/04/05 02:31:00;;;;;;;6.93;1.73;;;7.00;99.90;;;;;;5075358;28;20427;-73
2022/04/05 02:33:26;;;;;;;6.28;1.77;;;7.00;99.90;;;;;;5075058;28;20089;-72
2022/04/05 02:35:52;;;;;;;11.25;2.20;;;7.00;99.90;;;;;;5075069;28;20058;-73
2022/04/05 02:38:18;;;;;;;8.43;2.05;;;7.00;99.90;;;;;;5075168;28;20094;-72
2022/04/05 02:40:44;;;;;;;7.25;2.17;;;7.00;99.90;;;;;;5075001;28;20456;-72
2022/04/05 02:43:10;;;;;;;8.38;2.05;;;7.00;99.90;;;;;;5076256;28;20076;-72
2022/04/05 02:45:35;;;;;;;9.90;1.60;;;7.00;99.90;;;;;;5079138;28;20071;-72
2022/04/05 02:48:01;;;;;;;6.57;1.95;;;7.00;99.90;;;;;;5062312;28;20048;-72
2022/04/05 02:50:27;;;;;;;9.82;1.80;;;7.00;99.90;;;;;;5079283;28;20113;-72
2022/04/05 02:52:53;;;;;;;8.27;1.95;;;7.00;99.90;;;;;;5062362;28;20476;-72
2022/04/05 02:55:18;;;;;;;10.23;2.13;;;7.00;99.90;;;;;;5078922;28;20123;-72
2022/04/05 02:57:45;;;;;;;8.82;1.80;;;7.00;99.90;;;;;;5078806;28;20047;-72
2022/04/05 03:00:15;;;;;;;9.93;1.85;;;7.00;99.90;;;;;;5079162;28;20399;-72
2022/04/05 03:02:42;;;;;;;10.60;1.88;;;7.00;99.90;;;;;;5079062;28;20044;-72
2022/04/05 03:05:08;;;;;;;8.07;1.88;;;7.00;99.90;;;;;;5078701;28;20078;-72
2022/04/05 03:07:35;;;;;;;9.77;1.90;;;7.00;99.90;;;;;;5078535;28;20040;-72
2022/04/05 03:10:06;;;;;;;10.70;1.83;;;7.00;99.90;;;;;;5078656;28;20051;-72
2022/04/05 03:12:33;;;;;;;9.15;1.70;;;7.00;99.90;;;;;;5061899;28;20036;-72
2022/04/05 03:14:58;;;;;;;12.57;2.45;;;7.00;99.90;;;;;;5078773;28;20040;-72
2022/04/05 03:17:24;;;;;;;10.38;1.88;;;7.00;99.90;;;;;;5078863;28;20245;-73
2022/04/05 03:19:49;;;;;;;10.07;2.25;;;7.00;99.90;;;;;;5079027;28;20044;-72
2022/04/05 03:22:16;;;;;;;9.48;2.00;;;7.00;99.90;;;;;;5078417;28;20058;-72
2022/04/05 03:24:42;;;;;;;13.35;2.65;;;7.00;99.90;;;;;;5078345;28;20040;-72
2022/04/05 03:27:08;;;;;;;10.55;2.13;;;7.00;99.90;;;;;;5061494;28;20051;-73
2022/04/05 03:29:34;;;;;;;13.98;2.17;;;7.00;99.90;;;;;;5078248;28;20090;-72
2022/04/05 03:31:59;;;;;;;11.30;2.40;;;7.00;99.90;;;;;;5078468;28;20032;-72
2022/04/05 03:34:25;;;;;;;8.60;1.95;;;7.00;99.90;;;;;;5078117;28;20504;-73
2022/04/05 03:36:50;;;;;;;12.32;2.47;;;7.00;99.90;;;;;;5078393;28;20040;-72
2022/04/05 03:39:16;;;;;;;11.52;2.17;;;7.00;99.90;;;;;;5061556;28;20119;-72
2022/04/05 03:41:42;;;;;;;19.25;3.40;;;7.00;99.90;;;;;;5078015;28;20507;-72
2022/04/05 03:44:08;;;;;;;12.27;2.22;;;7.00;99.90;;;;;;5061362;28;20082;-72
2022/04/05 03:46:33;;;;;;;10.38;2.70;;;7.00;99.90;;;;;;5077930;28;20067;-72
2022/04/05 03:49:00;;;;;;;10.30;2.42;;;7.10;99.90;;;;;;5077808;28;20040;-72
2022/04/05 03:51:26;;;;;;;12.05;2.17;;;7.10;99.90;;;;;;5061119;28;20040;-72
2022/04/05 03:53:52;;;;;;;7.53;1.95;;;7.00;99.90;;;;;;5077851;28;20043;-72
2022/04/05 03:56:19;;;;;;;11.52;2.50;;;7.10;99.90;;;;;;5078007;28;20044;-72
2022/04/05 03:58:44;;;;;;;12.25;2.67;;;7.10;99.90;;;;;;5061036;28;20411;-73
2022/04/05 04:01:10;;;;;;;10.45;1.98;;;7.10;99.90;;;;;;5077701;28;20123;-72
2022/04/05 04:03:35;;;;;;;14.10;2.97;;;7.00;99.90;;;;;;5077909;28;20101;-72
2022/04/05 04:06:01;;;;;;;14.57;2.33;;;7.10;99.90;;;;;;5078098;28;20557;-72
2022/04/05 04:08:27;;;;;;;7.97;2.20;;;7.10;99.90;;;;;;5077412;28;20058;-72
2022/04/05 04:10:53;;;;;;;10.95;2.30;;;7.10;99.90;;;;;;5077802;28;20040;-72
2022/04/05 04:13:19;;;;;;;15.75;3.03;;;7.10;99.90;;;;;;5077504;28;20572;-72
2022/04/05 04:15:45;;;;;;;8.13;2.10;;;7.10;99.90;;;;;;5077648;28;20032;-72
2022/04/05 04:18:11;;;;;;;11.05;2.53;;;7.10;99.90;;;;;;5077287;28;20127;-72
2022/04/05 04:20:42;;;;;;;15.45;2.83;;;7.10;99.90;;;;;;5077314;28;20086;-72
2022/04/05 04:23:08;;;;;;;11.93;2.47;;;7.10;99.90;;;;;;5077574;28;20083;-72
2022/04/05 04:25:34;;;;;;;12.23;2.38;;;7.10;99.90;;;;;;5077141;28;20503;-72
2022/04/05 04:28:00;;;;;;;18.35;2.97;;;7.10;99.90;;;;;;5077251;28;20040;-72
2022/04/05 04:30:26;;;;;;;12.45;2.58;;;7.10;99.90;;;;;;5060473;28;20507;-72
2022/04/05 04:32:53;;;;;;;12.38;2.50;;;7.10;99.90;;;;;;5077092;28;20036;-73
2022/04/05 04:35:20;;;;;;;12.55;2.47;;;7.10;99.90;;;;;;5077075;28;20491;-72
2022/04/05 04:37:46;;;;;;;12.07;2.55;;;7.10;99.90;;;;;;5076835;28;20043;-72
2022/04/05 04:40:12;;;;;;;15.85;2.85;;;7.10;99.90;;;;;;5076947;28;20036;-72
2022/04/05 04:42:37;;;;;;;10.13;2.25;;;7.10;99.90;;;;;;5076926;28;20044;-72
2022/04/05 04:45:03;;;;;;;12.65;2.40;;;7.10;99.90;;;;;;5076892;28;20122;-72
2022/04/05 04:47:29;;;;;;;10.60;2.30;;;7.10;99.90;;;;;;5076842;28;20074;-73
2022/04/05 04:49:55;;;;;;;11.60;2.45;;;7.10;99.90;;;;;;5076797;28;20120;-72
2022/04/05 04:52:20;;;;;;;12.00;2.95;;;7.10;99.90;;;;;;5076967;28;20120;-72
2022/04/05 04:54:46;;;;;;;14.45;2.60;;;7.10;99.90;;;;;;5076642;28;20036;-72
2022/04/05 04:57:12;;;;;;;9.90;2.20;;;7.10;99.90;;;;;;5076520;28;20050;-72
2022/04/05 04:59:37;;;;;;;13.05;2.53;;;7.10;99.90;;;;;;5076538;28;20048;-72
2022/04/05 05:02:03;;;;;;;10.25;2.60;;;7.10;99.90;;;;;;5059844;28;20044;-73
2022/04/05 05:04:29;;;;;;;12.18;2.22;;;7.10;99.90;;;;;;5076403;28;20036;-72
2022/04/05 05:06:55;;;;;;;10.25;2.50;;;7.10;99.90;;;;;;5075724;28;20043;-72
2022/04/05 05:09:21;;;;;;;9.52;2.60;;;7.10;99.90;;;;;;5076243;28;20032;-72
2022/04/05 05:11:46;;;;;;;8.32;2.05;;;7.00;99.90;;;;;;5076312;28;20055;-72
2022/04/05 05:14:12;;;;;;;9.88;2.42;;;7.10;99.90;;;;;;5076229;28;20040;-72
2022/04/05 05:16:37;;;;;;;11.90;2.83;;;7.10;99.90;;;;;;5076136;28;20088;-72
2022/04/05 05:19:05;;;;;;;11.38;2.17;;;7.10;99.90;;;;;;5076126;28;20079;-72
2022/04/05 05:21:30;;;;;;;8.50;2.13;;;7.00;99.90;;;;;;5076149;28;20040;-72
2022/04/05 05:23:56;;;;;;;11.32;2.97;;;7.10;99.90;;;;;;5076344;28;20040;-72
2022/04/05 05:26:22;;;;;;;14.40;3.45;;;7.10;99.90;;;;;;5076273;28;20381;-73
2022/04/05 05:28:47;;;;;;;8.18;2.75;;;7.10;99.90;;;;;;5076513;28;20477;-73
2022/04/05 05:31:13;;;;;;;9.15;2.42;;;7.10;99.90;;;;;;5076254;28;20047;-72
2022/04/05 05:33:38;;;;;;;10.10;2.00;;;7.10;99.90;;;;;;5075925;28;20562;-72
2022/04/05 05:36:04;;;;;;;8.43;2.00;;;7.10;99.90;;;;;;5075825;28;20036;-72
2022/04/05 05:38:29;;;;;;;11.82;2.17;;;7.10;99.90;;;;;;5058954;28;20457;-72
2022/04/05 05:40:55;;;;;;;10.40;2.40;;;7.10;99.90;;;;;;5076060;28;20127;-72
2022/04/05 05:43:23;;;;;;;8.50;2.17;;;7.10;99.90;;;;;;5075719;28;20541;-72
2022/04/05 05:45:49;;;;;;;10.23;2.28;;;7.10;99.90;;;;;;5058894;28;20108;-72
2022/04/05 05:48:14;;;;;;;11.30;2.55;;;7.20;99.90;;;;;;5075471;28;20040;-72
2022/04/05 05:50:40;;;;;;;14.68;2.15;;;7.10;99.90;;;;;;5075842;28;20036;-72
2022/04/05 05:53:06;;;;;;;8.63;2.10;;;7.20;99.90;;;;;;5075833;28;20079;-73
2022/04/05 05:55:32;;;;;;;10.75;1.98;;;7.20;99.90;;;;;;5059181;28;20036;-72
2022/04/05 05:57:58;;;;;;;5.90;2.10;;;7.20;99.90;;;;;;5075490;28;20047;-72
2022/04/05 06:00:24;;;;;;;8.10;1.98;;;7.20;99.90;;;;;;5075461;28;20048;-72
2022/04/05 06:02:55;;;;;;;5.85;1.60;;;7.20;99.90;;;;;;5075403;28;20040;-72
2022/04/05 06:05:21;;;;;;;7.88;2.08;;;7.20;99.90;;;;;;5075455;28;20039;-72
2022/04/05 06:07:47;;;;;;;9.57;2.13;;;7.30;99.90;;;;;;5075245;28;20071;-73
2022/04/05 06:10:13;;;;;;;8.25;1.95;;;7.20;99.90;;;;;;5075387;28;20032;-73
2022/04/05 06:12:41;;;;;;;8.50;2.40;;;7.30;99.90;;;;;;5058923;28;20492;-72
2022/04/05 06:15:08;;;;;;;7.13;1.70;;;7.30;99.90;;;;;;5058642;28;20032;-73
2022/04/05 06:17:36;;;;;;;9.27;1.98;;;7.30;99.90;;;;;;5057559;28;20047;-73
2022/04/05 06:20:03;;;;;;;7.45;2.03;;;7.30;99.90;;;;;;5075473;28;20048;-72
2022/04/05 06:22:28;;;;;;;7.85;2.13;;;7.30;99.90;;;;;;5075196;28;20047;-72
2022/04/05 06:24:54;;;;;;;9.52;2.10;;;7.30;99.90;;;;;;5075350;28;20040;-72
2022/04/05 06:27:19;;;;;;;6.63;1.58;;;7.30;99.90;;;;;;5075258;28;20407;-73
2022/04/05 06:29:45;;;;;;;4.18;1.50;;;7.30;99.90;;;;;;5075138;28;20488;-72
2022/04/05 06:32:11;;;;;;;9.05;1.77;;;7.30;99.90;;;;;;5075161;28;20111;-73
2022/04/05 06:34:36;;;;;;;5.72;1.80;;;7.40;99.90;;;;;;5075122;28;20067;-72
2022/04/05 06:37:02;;;;;;;8.40;2.95;;;7.40;99.90;;;;;;5075055;28;20036;-72
2022/04/05 06:39:27;;;;;;;7.78;1.80;;;7.40;99.90;;;;;;5074915;28;20085;-72
2022/04/05 06:41:53;;;;;;;7.90;2.20;;;7.40;99.90;;;;;;5075334;28;20047;-72
2022/04/05 06:44:19;;;;;;;6.30;1.80;;;7.40;99.90;;;;;;5058329;28;20479;-72
2022/04/05 06:46:45;;;;;;;7.97;1.60;;;7.50;99.90;;;;;;5075077;28;20032;-72
2022/04/05 06:49:10;;;;;;;6.22;1.88;;;7.50;99.90;;;;;;5074856;28;20181;-72
2022/04/05 06:51:36;;;;;;;6.78;1.48;;;7.60;99.90;;;;;;5074988;28;20484;-72
2022/04/05 06:54:02;;;;;;;5.25;1.75;;;7.60;99.90;;;;;;5074964;28;20036;-72
2022/04/05 06:56:28;;;;;;;7.75;1.83;;;7.70;99.90;;;;;;5074819;28;20047;-72
2022/04/05 06:58:54;;;;;;;7.15;1.63;;;7.70;99.90;;;;;;5075111;28;20067;-72
2022/04/05 07:01:19;;;;;;;6.30;1.40;;;7.70;99.90;;;;;;5074900;28;20514;-72
2022/04/05 07:03:45;;;;;;;6.32;1.60;;;7.80;99.90;;;;;;5075111;28;20126;-72
2022/04/05 07:06:10;;;;;;;7.75;1.90;;;7.70;99.90;;;;;;5058089;28;20040;-73
2022/04/05 07:08:36;;;;;;;6.35;1.55;;;7.70;99.90;;;;;;5074656;28;20040;-73
2022/04/05 07:11:02;;;;;;;9.20;2.05;;;7.80;99.90;;;;;;5074754;28;20480;-73
2022/04/05 07:13:30;;;;;;;6.60;1.42;;;7.80;99.90;;;;;;5058349;28;20093;-73
2022/04/05 07:15:56;;;;;;;4.22;1.20;;;7.80;99.90;;;;;;5092783;28;20036;-72
2022/04/05 07:18:21;;;;;;;5.75;1.00;;;7.80;99.90;;;;;;5074666;28;20043;-73
2022/04/05 07:20:47;;;;;;;4.53;1.08;;;7.80;99.90;;;;;;5074700;28;20141;-73
2022/04/05 07:23:15;;;;;;;7.07;1.60;;;7.80;99.90;;;;;;5057989;28;20393;-73
2022/04/05 07:25:41;;;;;;;5.18;1.10;;;7.80;99.90;;;;;;5074647;28;20492;-73
2022/04/05 07:28:07;;;;;;;10.70;1.60;;;7.90;99.90;;;;;;5074501;28;20123;-73
2022/04/05 07:30:32;;;;;;;6.93;1.77;;;7.90;99.90;;;;;;5077723;28;20033;-72
2022/04/05 07:32:58;;;;;;;5.55;1.20;;;7.90;99.90;;;;;;5078497;28;20043;-73
2022/04/05 07:35:24;;;;;;;4.55;1.10;;;8.00;99.90;;;;;;5078208;28;20487;-73
2022/04/05 07:37:49;;;;;;;7.22;1.08;;;8.00;99.90;;;;;;5078193;28;20036;-72
2022/04/05 07:40:16;;;;;;;4.28;1.00;;;8.10;99.90;;;;;;5078634;28;20054;-74
2022/04/05 07:42:43;;;;;;;3.75;1.02;;;8.10;99.90;;;;;;5078302;28;20058;-74
2022/04/05 07:45:10;;;;;;;5.68;1.15;;;8.20;99.90;;;;;;5061647;28;20052;-74
2022/04/05 07:47:36;;;;;;;4.63;1.10;;;8.20;99.90;;;;;;5077823;28;20130;-74
2022/04/05 07:50:04;;;;;;;4.20;1.00;;;8.20;99.90;;;;;;5077900;28;20115;-75
2022/04/05 07:52:29;;;;;;;6.38;1.00;;;8.20;99.90;;;;;;5061404;28;20044;-75
2022/04/05 07:54:55;;;;;;;5.78;1.10;;;8.20;99.90;;;;;;5078078;28;20149;-75
2022/04/05 07:57:21;;;;;;;5.88;1.23;;;8.20;99.90;;;;;;5077739;28;20043;-74
2022/04/05 07:59:46;;;;;;;4.53;0.90;;;8.10;99.90;;;;;;5077741;28;20051;-74
2022/04/05 08:02:12;;;;;;;4.70;0.95;;;8.10;99.90;;;;;;5061004;28;20047;-75
2022/04/05 08:04:37;;;;;;;4.97;1.10;;;8.10;99.90;;;;;;5077649;28;20055;-74
2022/04/05 08:07:03;;;;;;;5.60;1.30;;;8.10;99.90;;;;;;5077536;28;20085;-74
2022/04/05 08:09:29;;;;;;;3.58;0.90;;;8.20;99.90;;;;;;5060748;28;20040;-74
2022/04/05 08:11:54;;;;;;;6.20;1.23;;;8.20;99.90;;;;;;5077823;28;20047;-75
2022/04/05 08:14:23;;;;;;;4.47;0.98;;;8.30;99.90;;;;;;5060783;28;20029;-75
2022/04/05 08:16:49;;;;;;;3.63;1.02;;;8.30;99.90;;;;;;5060714;28;20043;-74
2022/04/05 08:19:14;;;;;;;4.57;1.40;;;8.40;99.90;;;;;;5077624;28;20044;-74
2022/04/05 08:21:40;;;;;;;4.05;0.93;;;8.40;99.90;;;;;;5077647;28;20404;-75
2022/04/05 08:24:06;;;;;;;4.05;1.42;;;8.50;99.90;;;;;;5077370;28;20471;-75
2022/04/05 08:26:31;;;;;;;4.97;1.25;;;8.50;99.90;;;;;;5077329;28;20044;-74
2022/04/05 08:28:57;;;;;;;4.90;1.10;;;8.60;99.90;;;;;;5077152;28;20047;-75
2022/04/05 08:31:26;;;;;;;5.70;1.23;;;8.60;99.90;;;;;;5077181;28;20032;-75
2022/04/05 08:33:52;;;;;;;4.97;1.00;;;8.60;99.90;;;;;;5077163;28;20078;-74
2022/04/05 08:36:17;;;;;;;4.18;0.77;;;8.60;99.90;;;;;;5077161;28;20036;-74
2022/04/05 08:38:43;;;;;;;2.70;1.05;;;8.60;99.90;;;;;;5076953;28;20090;-74
2022/04/05 08:41:12;;;;;;;3.47;0.90;;;8.60;99.90;;;;;;5076014;28;20040;-75
2022/04/05 08:43:41;;;;;;;2.05;0.70;;;8.60;99.90;;;;;;5060502;28;20040;-75
2022/04/05 08:46:07;;;;;;;3.22;0.90;;;8.70;99.90;;;;;;5076893;28;20126;-74
2022/04/05 08:48:35;;;;;;;3.65;1.02;;;8.70;99.90;;;;;;5076781;28;20146;-74
2022/04/05 08:51:00;;;;;;;4.80;1.15;;;8.70;99.90;;;;;;5076755;28;20085;-75
2022/04/05 08:53:28;;;;;;;2.10;0.80;;;8.70;99.90;;;;;;5076701;28;20442;-75
2022/04/05 08:55:53;;;;;;;4.22;1.00;;;8.80;99.90;;;;;;5076654;28;20036;-74
2022/04/05 08:58:19;;;;;;;4.45;1.20;;;8.80;99.90;;;;;;5076554;28;20092;-74
2022/04/05 09:00:45;;;;;;;3.78;0.82;;;8.80;99.90;;;;;;5076562;28;20036;-75
2022/04/05 09:03:10;;;;;;;5.20;1.30;;;8.70;99.90;;;;;;5076508;28;20074;-74
2022/04/05 09:05:44;;;;;;;4.70;1.20;;;8.80;99.90;;;;;;5077601;28;20035;-74
2022/04/05 09:08:20;;;;;;;3.35;1.00;;;8.80;99.90;;;;;;5059606;28;20043;-74
2022/04/05 09:10:54;;;;;;;2.25;0.75;;;8.90;99.90;;;;;;5076453;28;20043;-75
2022/04/05 09:13:27;;;;;;;1.98;0.70;;;8.90;99.90;;;;;;5059793;28;20031;-75
2022/04/05 09:15:56;;;;;;;2.83;0.77;;;8.90;99.90;;;;;;5076272;28;20042;-74
2022/04/05 09:18:34;;;;;;;2.15;0.80;;;8.90;99.90;;;;;;5059511;28;20044;-74
2022/04/05 09:21:00;;;;;;;3.17;0.80;;;9.00;99.90;;;;;;5076164;28;20044;-74
2022/04/05 09:23:30;;;;;;;1.70;0.60;;;9.10;99.90;;;;;;5076144;28;20495;-75
2022/04/05 09:26:05;;;;;;;2.05;0.68;;;9.20;99.90;;;;;;5076102;28;20124;-75
2022/04/05 09:28:36;;;;;;;1.95;0.75;;;9.20;99.90;;;;;;5075936;28;20044;-75
2022/04/05 09:31:04;;;;;;;1.85;0.60;;;9.30;99.90;;;;;;5059361;28;20028;-75
2022/04/05 09:33:33;;;;;;;2.70;0.70;;;9.40;99.90;;;;;;5076211;28;20119;-74
2022/04/05 09:36:14;;;;;;;2.30;0.68;;;9.40;99.90;;;;;;5076160;28;20048;-75
2022/04/05 09:38:42;;;;;;;1.48;0.60;;;9.40;99.90;;;;;;5075629;28;20119;-74
2022/04/05 09:41:13;;;;;;;2.50;0.65;;;9.40;99.90;;;;;;5076010;28;20032;-74
2022/04/05 09:43:54;;;;;;;3.05;0.63;;;9.40;99.90;;;;;;5059140;28;20127;-75
2022/04/05 09:46:21;;;;;;;1.73;0.60;;;9.30;99.90;;;;;;5075743;28;20036;-75
2022/04/05 09:48:47;;;;;;;1.73;0.63;;;9.30;99.90;;;;;;5075487;28;20044;-74
2022/04/05 09:51:14;;;;;;;1.25;0.50;;;9.20;99.90;;;;;;5075848;28;20032;-74
2022/04/05 09:53:43;;;;;;;1.30;0.43;;;9.30;99.90;;;;;;5075359;28;20128;-75
2022/04/05 09:56:15;;;;;;;1.33;0.55;;;9.30;99.90;;;;;;5075490;28;20048;-74
2022/04/05 09:58:53;;;;;;;1.30;0.40;;;9.30;99.90;;;;;;5075374;28;20516;-74
2022/04/05 10:01:24;;;;;;;0.40;0.40;;;9.30;99.90;;;;;;5075548;28;20079;-74
2022/04/05 10:03:57;;;;;;;0.90;0.43;;;9.30;99.90;;;;;;5075454;28;20478;-74
2022/04/05 10:06:23;;;;;;;0.80;0.60;;;9.20;99.90;;;;;;5075423;28;20522;-74
2022/04/05 10:08:49;;;;;;;0.60;0.50;;;9.10;99.90;;;;;;5075277;28;20036;-74
2022/04/05 10:11:15;;;;;;;0.73;0.50;;;9.10;99.90;;;;;;5075375;28;20035;-75
2022/04/05 10:13:41;;;;;;;1.58;0.80;;;9.00;99.90;;;;;;5075240;28;20028;-75
2022/04/05 10:16:10;;;;;;;1.35;0.80;;;9.00;99.90;;;;;;5075293;28;20079;-75
2022/04/05 10:18:36;;;;;;;1.17;0.70;;;9.10;99.90;;;;;;5075278;28;20071;-74
2022/04/05 10:21:04;;;;;;;1.80;0.80;;;9.10;99.90;;;;;;5058599;28;20078;-74
2022/04/05 10:23:30;;;;;;;1.63;0.93;;;9.10;99.90;;;;;;5075191;28;20075;-76
2022/04/05 10:25:57;;;;;;;1.83;1.00;;;9.10;99.90;;;;;;5075220;28;20128;-76
2022/04/05 10:28:28;;;;;;;1.75;1.17;;;9.20;99.90;;;;;;5075087;28;20105;-76
2022/04/05 10:31:31;;;;;;;3.35;1.40;;;9.30;99.90;;;;;;5075153;28;20102;-76
2022/04/05 10:34:25;;;;;;;2.50;1.65;;;9.40;99.90;;;;;;5075107;28;20093;-75
2022/04/05 10:37:12;;;;;;;2.65;1.80;;;9.50;99.90;;;;;;5058385;28;20036;-76
2022/04/05 10:39:38;;;;;;;2.63;1.70;;;9.50;99.90;;;;;;5058346;28;20127;-75
2022/04/05 10:42:13;;;;;;;3.17;2.05;;;9.60;99.90;;;;;;5058345;28;20044;-76
2022/04/05 10:44:52;;;;;;;3.60;2.30;;;9.60;99.90;;;;;;5074969;28;20044;-76
2022/04/05 10:47:17;;;;;;;3.45;2.30;;;9.60;99.90;;;;;;5058114;28;20047;-75
2022/04/05 10:49:47;;;;;;;3.63;2.38;;;9.60;99.90;;;;;;5075229;28;20032;-75
2022/04/05 10:52:18;;;;;;;2.95;2.53;;;9.60;99.90;;;;;;5074893;28;20032;-76
2022/04/05 10:54:45;;;;;;;4.88;2.33;;;9.70;99.90;;;;;;5075158;28;20036;-75
2022/04/05 10:57:31;;;;;;;3.13;2.47;;;9.80;99.90;;;;;;5074788;28;20043;-75
2022/04/05 10:59:58;;;;;;;3.25;2.80;;;9.90;99.90;;;;;;5074887;28;20042;-76
2022/04/05 11:02:39;;;;;;;3.20;2.25;;;9.90;99.90;;;;;;5074850;28;20043;-74
2022/04/05 11:05:27;;;;;;;3.30;2.33;;;10.00;99.90;;;;;;5077446;28;20036;-73
2022/04/05 11:07:59;;;;;;;3.42;2.50;;;10.10;99.90;;;;;;5078577;28;20125;-73
2022/04/05 11:10:44;;;;;;;2.70;2.30;;;10.40;99.90;;;;;;5062301;28;20105;-73
2022/04/05 11:13:17;;;;;;;2.13;1.73;;;10.90;99.90;;;;;;5061967;28;20483;-73
2022/04/05 11:15:46;;;;;;;3.63;1.98;;;11.30;99.90;;;;;;5062206;28;20123;-73
2022/04/05 11:18:21;;;;;;;2.60;1.90;;;11.40;99.90;;;;;;5078420;28;20071;-73
2022/04/05 11:20:51;;;;;;;3.17;1.90;;;11.30;99.90;;;;;;5078527;28;20040;-74
2022/04/05 11:23:19;;;;;;;3.78;2.30;;;11.30;99.90;;;;;;5078397;28;20046;-74
2022/04/05 11:25:46;;;;;;;2.42;1.98;;;11.30;99.90;;;;;;5078325;28;20115;-73
2022/04/05 11:28:12;;;;;;;2.30;2.00;;;11.40;99.90;;;;;;5078333;28;20500;-73
2022/04/05 11:30:47;;;;;;;2.15;1.90;;;11.50;99.90;;;;;;5078306;28;20032;-73
2022/04/05 11:33:21;;;;;;;2.55;1.40;;;11.50;99.90;;;;;;5078537;28;20032;-72
2022/04/05 11:35:49;;;;;;;2.30;1.55;;;11.40;99.90;;;;;;5061571;28;20032;-73
2022/04/05 11:38:18;;;;;;;3.03;1.95;;;11.40;99.90;;;;;;5078283;28;20040;-73
2022/04/05 11:40:49;;;;;;;2.00;1.73;;;11.40;99.90;;;;;;5061482;28;20044;-73
2022/04/05 11:43:41;;;;;;;2.92;2.08;;;11.40;99.90;;;;;;5078112;28;20048;-73
2022/04/05 11:46:14;;;;;;;2.55;2.15;;;11.40;99.90;;;;;;5071434;28;20420;-73
2022/04/05 11:49:01;;;;;;;2.50;1.90;;;11.30;99.90;;;;;;5077915;28;20052;-73
2022/04/05 11:51:34;;;;;;;2.28;1.70;;;11.30;99.90;;;;;;5078078;28;20031;-74
2022/04/05 11:54:10;;;;;;;1.90;1.52;;;11.20;99.90;;;;;;5077873;28;20127;-73
2022/04/05 11:56:37;;;;;;;2.75;2.15;;;11.20;99.90;;;;;;5078115;28;20086;-73
2022/04/05 11:59:05;;;;;;;2.10;1.90;;;11.20;99.90;;;;;;5077750;28;20036;-73
2022/04/05 12:01:34;;;;;;;1.98;1.77;;;11.20;99.90;;;;;;5077999;28;20044;-73
2022/04/05 12:04:10;;;;;;;2.55;2.08;;;11.20;99.90;;;;;;5061163;28;20048;-73
2022/04/05 12:06:41;;;;;;;2.30;1.90;;;11.20;99.90;;;;;;5077619;28;20050;-73
2022/04/05 12:09:13;;;;;;;3.17;2.10;;;11.20;99.90;;;;;;5077456;28;20036;-73
2022/04/05 12:11:40;;;;;;;4.97;2.80;;;11.40;99.90;;;;;;5061173;28;20038;-73
2022/04/05 12:14:09;;;;;;;3.83;3.13;;;11.50;99.90;;;;;;5077552;28;20032;-73
2022/04/05 12:16:52;;;;;;;6.03;4.07;;;11.60;99.90;;;;;;5077391;28;20040;-73
2022/04/05 12:19:23;;;;;;;5.45;4.03;;;11.50;99.90;;;;;;5077413;28;20044;-73
2022/04/05 12:21:53;;;;;;;8.43;5.03;;;11.40;99.90;;;;;;5077341;28;20128;-73
2022/04/05 12:24:20;;;;;;;6.05;4.75;;;11.30;99.90;;;;;;5077685;28;20052;-73
2022/04/05 12:26:46;;;;;;;6.57;4.45;;;11.20;99.90;;;;;;5077292;28;20044;-73
2022/04/05 12:29:11;;;;;;;6.53;4.25;;;11.20;99.90;;;;;;5077064;28;20047;-73
2022/04/05 12:31:38;;;;;;;8.65;4.40;;;11.10;99.90;;;;;;5077234;28;20119;-73
2022/04/05 12:34:11;;;;;;;8.73;4.20;;;11.10;99.90;;;;;;5077390;28;20032;-73
2022/04/05 12:36:53;;;;;;;8.85;4.40;;;11.10;99.90;;;;;;5077697;28;20080;-73
2022/04/05 12:39:26;;;;;;;9.98;3.92;;;11.00;99.90;;;;;;5076917;28;20040;-73
2022/04/05 12:41:56;;;;;;;7.38;4.25;;;11.10;99.90;;;;;;5060576;28;20040;-73
2022/04/05 12:44:26;;;;;;;8.43;4.35;;;11.00;99.90;;;;;;5077140;28;20044;-73
2022/04/05 12:47:14;;;;;;;8.00;4.15;;;10.90;99.90;;;;;;5076813;28;20534;-73
2022/04/05 12:49:45;;;;;;;9.32;5.10;;;10.90;99.90;;;;;;5077681;28;20094;-73
2022/04/05 12:52:16;;;;;;;11.32;4.30;;;10.80;99.90;;;;;;5060353;28;20058;-73
2022/04/05 12:55:03;;;;;;;10.63;4.47;;;10.80;99.90;;;;;;5059927;28;20480;-74
2022/04/05 12:57:37;;;;;;;9.18;3.80;;;10.80;99.90;;;;;;5076847;28;20043;-73